Schedule Details

Flight Number: CPX209
Departure: Los Angeles International Airport (KLAX) at 1100 UTC
Arrival: Miami International Airport (KMIA) at 1545 UTC
Route: DOTSS2 CNERY BLH J65 KOFFA J169 TFD J50 ELP J2 JCT J86 LEV Q102 BAGGS SSCOT5


Current Weather Information
KLAX 192253Z 26012KT 10SM FEW090 14/M01 A3009 RMK AO2 SLP190 T01391006
KMIA 192253Z 10011KT 10SM SCT027 26/21 A3013 RMK AO2 SLP202 T02560206